Time;durP1;ratioP1;P1;durP2;ratioP2;P2;SDS_P1;SDS_P2;PMS_P1;PMS_P2;Temp;Humidity;BMP_temperature;BMP_pressure;BME280_temperature;BME280_humidity;BME280_pressure;Samples;Min_cycle;Max_cycle;Signal;HPM_P1;HPM_P2
2023/05/16 00:01:43;;;;;;;16.08;14.00;;;;;;;13.36;85.29;94618.59;5075177;28;20181;-72
2023/05/16 00:04:12;;;;;;;15.52;14.02;;;;;;;13.37;85.20;94620.22;5075093;28;20189;-71
2023/05/16 00:06:47;;;;;;;15.63;13.98;;;;;;;13.37;85.22;94617.44;5074141;28;20220;-72
2023/05/16 00:09:15;;;;;;;15.23;13.80;;;;;;;13.39;85.04;94615.06;5074801;28;20624;-72
2023/05/16 00:11:44;;;;;;;14.15;12.90;;;;;;;13.38;85.69;94614.28;5074014;28;20246;-72
2023/05/16 00:14:12;;;;;;;15.32;13.93;;;;;;;13.38;85.40;94605.19;5073531;28;20609;-72
2023/05/16 00:16:40;;;;;;;15.43;13.93;;;;;;;13.37;85.58;94603.59;5074224;28;20613;-72
2023/05/16 00:19:11;;;;;;;15.02;13.60;;;;;;;13.32;85.61;94604.72;5074978;28;20250;-72
2023/05/16 00:21:43;;;;;;;15.10;13.60;;;;;;;13.30;85.58;94609.06;5074444;28;20193;-72
2023/05/16 00:24:13;;;;;;;14.60;13.30;;;;;;;13.27;85.63;94613.38;5075046;28;20196;-72
2023/05/16 00:26:44;;;;;;;17.48;15.77;;;;;;;13.28;85.90;94592.03;5074497;28;20511;-71
2023/05/16 00:29:13;;;;;;;15.00;13.70;;;;;;;13.19;86.09;94597.84;5074913;28;20213;-71
2023/05/16 00:31:44;;;;;;;15.45;14.05;;;;;;;13.14;86.14;94593.44;5073856;28;20601;-72
2023/05/16 00:34:10;;;;;;;15.73;14.25;;;;;;;13.13;86.23;94596.59;5074964;28;20288;-72
2023/05/16 00:36:40;;;;;;;15.55;14.20;;;;;;;13.10;86.37;94589.84;5074501;28;20181;-72
2023/05/16 00:39:11;;;;;;;15.43;13.95;;;;;;;13.09;86.53;94590.22;5073701;28;20193;-72
2023/05/16 00:41:40;;;;;;;15.52;14.02;;;;;;;13.05;86.72;94583.88;5074528;28;20189;-72
2023/05/16 00:44:10;;;;;;;15.02;13.63;;;;;;;13.01;86.76;94581.84;5073650;28;20216;-72
2023/05/16 00:46:38;;;;;;;15.73;14.20;;;;;;;13.02;86.95;94575.13;5073706;28;20245;-72
2023/05/16 00:49:06;;;;;;;15.48;13.95;;;;;;;13.02;86.93;94572.38;5073943;28;20200;-72
2023/05/16 00:51:34;;;;;;;15.23;13.93;;;;;;;13.02;87.01;94563.28;5073890;28;20231;-72
2023/05/16 00:54:05;;;;;;;15.77;14.20;;;;;;;13.00;87.02;94566.44;5074671;28;20272;-72
2023/05/16 00:56:35;;;;;;;15.48;13.95;;;;;;;13.00;87.32;94573.94;5074253;28;20197;-72
2023/05/16 00:59:06;;;;;;;15.43;13.82;;;;;;;12.99;87.54;94562.06;5076612;28;20196;-72
2023/05/16 01:01:35;;;;;;;15.18;13.77;;;;;;;13.04;87.60;94565.69;5077786;28;20181;-72
2023/05/16 01:04:05;;;;;;;15.27;13.90;;;;;;;13.04;87.45;94555.41;5078090;28;20193;-72
2023/05/16 01:06:33;;;;;;;14.77;13.43;;;;;;;13.06;87.38;94566.06;5077106;28;20216;-72
2023/05/16 01:09:01;;;;;;;14.82;12.88;;;;;;;13.09;87.22;94560.56;5077845;28;20209;-72
2023/05/16 01:11:34;;;;;;;14.02;12.73;;;;;;;13.08;86.57;94558.19;5077251;28;20209;-72
2023/05/16 01:14:17;;;;;;;14.65;13.27;;;;;;;13.10;86.67;94564.91;5077367;28;20287;-72
2023/05/16 01:16:51;;;;;;;15.13;13.55;;;;;;;13.09;86.40;94557.81;5077902;28;20200;-72
2023/05/16 01:19:44;;;;;;;14.77;13.27;;;;;;;13.09;86.59;94563.34;5076741;28;20205;-72
2023/05/16 01:22:15;;;;;;;15.45;14.00;;;;;;;13.08;85.97;94555.44;5076917;28;20197;-72
2023/05/16 01:24:53;;;;;;;15.05;13.57;;;;;;;13.07;85.54;94549.09;5076548;28;20262;-72
2023/05/16 01:27:30;;;;;;;14.30;12.90;;;;;;;13.08;85.44;94553.44;5077429;28;20690;-73
2023/05/16 01:29:56;;;;;;;14.63;13.25;;;;;;;13.10;85.46;94545.53;5077499;28;20205;-72
2023/05/16 01:32:24;;;;;;;15.35;14.05;;;;;;;13.11;85.73;94538.84;5077627;28;20278;-72
2023/05/16 01:34:52;;;;;;;13.98;12.77;;;;;;;13.11;85.84;94544.38;5076459;28;20228;-72
2023/05/16 01:37:24;;;;;;;15.23;13.48;;;;;;;13.10;85.91;94542.78;5076848;28;20200;-72
2023/05/16 01:39:56;;;;;;;14.57;13.15;;;;;;;13.09;85.92;94529.31;5077945;28;20197;-72
2023/05/16 01:42:29;;;;;;;14.45;13.15;;;;;;;13.10;85.79;94531.69;5059630;28;20341;-72
2023/05/16 01:45:02;;;;;;;14.35;12.93;;;;;;;13.09;85.71;94527.34;5077443;28;20221;-72
2023/05/16 01:47:32;;;;;;;14.38;13.15;;;;;;;13.07;85.74;94518.66;5076830;28;20216;-72
2023/05/16 01:50:05;;;;;;;14.70;13.23;;;;;;;13.11;85.53;94524.19;5076750;28;20244;-71
2023/05/16 01:52:38;;;;;;;14.95;13.52;;;;;;;13.11;85.29;94526.94;5077355;28;20186;-70
2023/05/16 01:55:11;;;;;;;14.07;12.63;;;;;;;13.10;85.33;94523.41;5077054;28;20193;-71
2023/05/16 01:57:46;;;;;;;15.48;13.85;;;;;;;13.10;85.34;94515.09;5076971;28;20576;-71
2023/05/16 02:00:15;;;;;;;14.25;12.95;;;;;;;13.12;85.43;94506.41;5076204;28;20277;-71
2023/05/16 02:02:43;;;;;;;14.27;13.07;;;;;;;13.11;85.52;94513.94;5075125;28;20523;-70
2023/05/16 02:05:11;;;;;;;14.95;13.45;;;;;;;13.12;85.83;94518.28;5077100;28;20196;-70
2023/05/16 02:07:41;;;;;;;14.13;12.75;;;;;;;13.10;85.58;94519.84;5076727;28;20633;-70
2023/05/16 02:10:12;;;;;;;13.75;12.50;;;;;;;13.10;85.45;94525.38;5075718;28;20186;-71
2023/05/16 02:12:44;;;;;;;13.68;12.45;;;;;;;13.10;85.46;94522.59;5075803;28;20201;-71
2023/05/16 02:15:14;;;;;;;14.35;13.02;;;;;;;13.07;85.80;94510.34;5076534;28;20574;-71
2023/05/16 02:17:42;;;;;;;14.40;12.90;;;;;;;13.07;85.49;94506.75;5076883;28;20189;-71
2023/05/16 02:20:12;;;;;;;15.02;13.63;;;;;;;13.09;85.52;94505.19;5076790;28;20197;-70
2023/05/16 02:22:43;;;;;;;14.80;13.50;;;;;;;13.10;85.37;94512.31;5076367;28;20602;-71
2023/05/16 02:25:14;;;;;;;13.75;12.52;;;;;;;13.09;85.33;94505.19;5077103;28;20265;-71
2023/05/16 02:27:46;;;;;;;14.27;12.98;;;;;;;13.11;84.99;94510.34;5076562;28;20262;-71
2023/05/16 02:30:15;;;;;;;13.60;12.43;;;;;;;13.09;85.18;94502.44;5075571;28;20200;-71
2023/05/16 02:32:44;;;;;;;14.23;12.82;;;;;;;13.08;85.13;94511.94;5076573;28;20197;-71
2023/05/16 02:35:12;;;;;;;14.45;13.15;;;;;;;13.12;85.09;94520.25;5076421;28;20193;-70
2023/05/16 02:37:42;;;;;;;14.07;12.77;;;;;;;13.12;85.11;94523.81;5076697;28;20185;-70
2023/05/16 02:40:11;;;;;;;15.13;13.63;;;;;;;13.11;84.98;94513.09;5075539;28;20205;-70
2023/05/16 02:42:40;;;;;;;14.25;13.05;;;;;;;13.11;84.70;94518.66;5075333;28;20291;-70
2023/05/16 02:45:15;;;;;;;14.13;12.77;;;;;;;13.11;84.92;94515.88;5075614;28;20212;-70
2023/05/16 02:47:43;;;;;;;13.80;12.52;;;;;;;13.11;85.07;94507.56;5076194;28;20224;-70
2023/05/16 02:50:11;;;;;;;13.70;12.50;;;;;;;13.11;85.12;94500.09;5076192;28;20190;-70
2023/05/16 02:52:38;;;;;;;14.40;12.90;;;;;;;13.12;85.48;94501.66;5075077;28;20270;-70
2023/05/16 02:55:07;;;;;;;13.55;12.35;;;;;;;13.12;85.36;94500.88;5075101;28;20201;-71
2023/05/16 02:57:35;;;;;;;14.32;12.98;;;;;;;13.08;85.42;94500.84;5075558;28;20193;-70
2023/05/16 03:00:04;;;;;;;13.75;12.48;;;;;;;13.05;85.68;94506.34;5075953;28;20238;-70
2023/05/16 03:02:33;;;;;;;13.65;12.48;;;;;;;13.04;86.11;94511.09;5074924;28;20203;-72
2023/05/16 03:05:04;;;;;;;14.13;12.82;;;;;;;13.06;86.28;94500.41;5058774;28;20201;-71
2023/05/16 03:07:36;;;;;;;14.40;13.13;;;;;;;13.07;86.27;94490.13;5075969;28;20302;-71
2023/05/16 03:10:07;;;;;;;13.45;12.20;;;;;;;13.07;86.25;94495.69;5075816;28;20209;-72
2023/05/16 03:12:34;;;;;;;14.02;12.73;;;;;;;13.06;86.10;94494.88;5074921;28;20204;-71
2023/05/16 03:15:04;;;;;;;13.52;12.32;;;;;;;13.06;86.30;94494.09;5074595;28;20290;-71
2023/05/16 03:17:40;;;;;;;14.77;13.27;;;;;;;13.05;86.19;94500.81;5075659;28;20250;-73
2023/05/16 03:20:15;;;;;;;14.15;12.90;;;;;;;13.05;86.09;94498.06;5074817;28;20291;-72
2023/05/16 03:22:46;;;;;;;14.30;13.00;;;;;;;13.05;86.12;94503.59;5074262;28;20189;-72
2023/05/16 03:25:17;;;;;;;14.15;12.95;;;;;;;13.04;85.86;94505.56;5074721;28;20258;-71
2023/05/16 03:27:48;;;;;;;13.68;12.38;;;;;;;13.05;85.92;94490.53;5074402;28;20245;-71
2023/05/16 03:30:19;;;;;;;15.25;13.30;;;;;;;13.02;85.77;94499.59;5074207;28;20224;-71
2023/05/16 03:32:55;;;;;;;14.73;13.32;;;;;;;13.01;85.41;94498.03;5074328;28;20270;-71
2023/05/16 03:35:24;;;;;;;14.23;12.82;;;;;;;12.99;85.54;94492.84;5074663;28;20204;-71
2023/05/16 03:37:53;;;;;;;14.95;13.43;;;;;;;13.01;85.81;94495.25;5075456;28;20235;-68
2023/05/16 03:40:24;;;;;;;14.05;12.60;;;;;;;13.01;85.81;94492.47;5075402;28;20189;-67
2023/05/16 03:42:54;;;;;;;15.77;14.23;;;;;;;12.97;85.24;94495.22;5075085;28;20250;-68
2023/05/16 03:45:28;;;;;;;15.20;13.80;;;;;;;12.94;84.59;94495.19;5074251;28;20201;-68
2023/05/16 03:47:57;;;;;;;15.68;14.27;;;;;;;12.94;84.99;94495.97;5075221;28;20254;-68
2023/05/16 03:50:25;;;;;;;14.43;13.13;;;;;;;12.93;84.80;94491.63;5074868;28;20182;-68
2023/05/16 03:52:53;;;;;;;15.52;13.88;;;;;;;12.94;85.07;94492.41;5074250;28;20254;-67
2023/05/16 03:55:21;;;;;;;14.77;13.27;;;;;;;12.94;84.78;94487.66;5074418;28;20640;-67
2023/05/16 03:57:51;;;;;;;14.98;13.57;;;;;;;12.95;84.96;94494.78;5075111;28;20181;-67
2023/05/16 04:00:19;;;;;;;15.10;13.73;;;;;;;12.95;85.05;94494.78;5073940;28;20197;-67
2023/05/16 04:02:48;;;;;;;14.60;13.10;;;;;;;12.97;85.16;94486.13;5074606;28;20645;-67
2023/05/16 04:05:20;;;;;;;15.27;13.98;;;;;;;12.97;84.92;94492.44;5075109;28;20185;-67
2023/05/16 04:07:48;;;;;;;14.32;13.02;;;;;;;12.96;85.23;94493.63;5073970;28;20652;-67
2023/05/16 04:10:16;;;;;;;16.42;14.82;;;;;;;12.96;85.10;94495.59;5075040;28;20192;-67
2023/05/16 04:12:44;;;;;;;15.10;13.70;;;;;;;13.00;84.98;94500.00;5074737;28;20247;-69
2023/05/16 04:15:12;;;;;;;15.85;14.23;;;;;;;13.05;84.77;94500.81;5073754;28;20950;-73
2023/05/16 04:17:40;;;;;;;14.52;13.20;;;;;;;13.09;84.33;94498.88;5074963;28;20513;-67
2023/05/16 04:20:09;;;;;;;15.27;13.88;;;;;;;13.12;84.37;94487.81;5073946;28;20567;-67
2023/05/16 04:22:38;;;;;;;14.57;13.18;;;;;;;13.15;84.27;94492.59;5074885;28;20197;-67
2023/05/16 04:25:07;;;;;;;14.88;13.57;;;;;;;13.17;84.21;94497.75;5074951;28;20185;-67
2023/05/16 04:27:34;;;;;;;15.18;13.77;;;;;;;13.17;84.38;94495.75;5074844;28;20235;-67
2023/05/16 04:30:21;;;;;;;12.73;11.35;;;;;;;13.20;84.16;94491.44;5074839;28;20228;-67
2023/05/16 04:32:49;;;;;;;14.23;12.93;;;;;;;13.20;84.09;94491.44;5074934;28;20196;-67
2023/05/16 04:35:20;;;;;;;15.07;13.43;;;;;;;13.22;84.18;94487.13;5078587;28;20202;-67
2023/05/16 04:37:50;;;;;;;15.07;13.48;;;;;;;13.24;84.08;94486.75;5077899;28;20197;-67
2023/05/16 04:40:20;;;;;;;14.15;12.77;;;;;;;13.26;84.30;94478.88;5078309;28;20246;-68
2023/05/16 04:42:49;;;;;;;14.23;12.85;;;;;;;13.26;84.45;94489.94;5077506;28;20197;-67
2023/05/16 04:45:19;;;;;;;13.68;12.45;;;;;;;13.26;84.68;94483.63;5077862;28;20208;-67
2023/05/16 04:47:51;;;;;;;14.88;12.95;;;;;;;13.27;84.71;94486.00;5078495;28;20189;-67
2023/05/16 04:50:19;;;;;;;13.43;12.05;;;;;;;13.29;84.80;94483.66;5078361;28;20223;-68
2023/05/16 04:52:47;;;;;;;13.68;12.48;;;;;;;13.28;84.46;94487.56;5078047;28;20617;-68
2023/05/16 04:55:16;;;;;;;14.02;12.52;;;;;;;13.27;84.78;94485.19;5078462;28;20189;-68
2023/05/16 04:57:45;;;;;;;14.35;12.95;;;;;;;13.24;84.67;94487.53;5078354;28;20185;-68
2023/05/16 05:00:15;;;;;;;15.10;13.60;;;;;;;13.23;84.68;94485.97;5077457;28;20201;-68
2023/05/16 05:02:43;;;;;;;17.38;15.55;;;;;;;13.21;84.81;94477.19;5078217;28;20238;-67
2023/05/16 05:05:12;;;;;;;17.25;15.57;;;;;;;13.21;84.79;94473.66;5078256;28;20262;-67
2023/05/16 05:07:40;;;;;;;18.65;15.70;;;;;;;13.21;84.74;94484.72;5077293;28;20205;-68
2023/05/16 05:10:09;;;;;;;16.63;15.07;;;;;;;13.21;84.86;94485.50;5077839;28;20201;-67
2023/05/16 05:12:38;;;;;;;17.48;15.68;;;;;;;13.21;84.55;94488.28;5077956;28;20205;-67
2023/05/16 05:15:07;;;;;;;16.25;14.52;;;;;;;13.20;85.02;94495.00;5077599;28;20245;-67
2023/05/16 05:17:36;;;;;;;17.63;15.73;;;;;;;13.20;85.12;94483.13;5077411;28;20201;-68
2023/05/16 05:20:07;;;;;;;17.42;15.70;;;;;;;13.21;85.07;94487.50;5076957;28;20205;-68
2023/05/16 05:22:35;;;;;;;16.40;14.65;;;;;;;13.20;85.34;94483.94;5077554;28;20221;-68
2023/05/16 05:25:03;;;;;;;15.30;13.75;;;;;;;13.20;85.03;94486.69;5077912;28;20204;-68
2023/05/16 05:27:31;;;;;;;15.98;14.13;;;;;;;13.22;85.27;94480.78;5077939;28;20185;-68
2023/05/16 05:30:01;;;;;;;15.35;13.93;;;;;;;13.22;85.41;94473.28;5077763;28;20274;-68
2023/05/16 05:32:29;;;;;;;15.50;13.63;;;;;;;13.24;85.39;94464.59;5077407;28;20219;-68
2023/05/16 05:34:58;;;;;;;15.80;14.02;;;;;;;13.24;85.73;94462.63;5077681;28;20181;-68
2023/05/16 05:37:26;;;;;;;14.80;13.32;;;;;;;13.27;85.75;94460.28;5077644;28;20193;-68
2023/05/16 05:39:54;;;;;;;15.88;13.57;;;;;;;13.27;85.80;94452.75;5076126;28;20189;-68
2023/05/16 05:42:22;;;;;;;14.93;13.40;;;;;;;13.29;85.79;94453.19;5076495;28;20289;-68
2023/05/16 05:44:51;;;;;;;14.82;13.27;;;;;;;13.31;85.88;94441.72;5076369;28;20246;-68
2023/05/16 05:47:20;;;;;;;14.43;12.85;;;;;;;13.32;85.96;94446.84;5077176;28;20258;-68
2023/05/16 05:49:48;;;;;;;14.15;11.40;;;;;;;13.39;84.59;94454.41;5077187;28;20240;-68
2023/05/16 05:52:16;;;;;;;12.30;10.88;;;;;;;13.48;83.60;94450.13;5076191;28;20246;-68
2023/05/16 05:54:45;;;;;;;12.35;10.98;;;;;;;13.57;82.69;94443.44;5077022;28;20193;-68
2023/05/16 05:57:13;;;;;;;11.68;10.52;;;;;;;13.65;81.85;94437.56;5077183;28;20266;-68
2023/05/16 05:59:40;;;;;;;13.35;10.43;;;;;;;13.72;81.12;94448.69;5076959;28;20247;-68
2023/05/16 06:02:08;;;;;;;11.43;10.23;;;;;;;13.79;80.75;94456.22;5076005;28;20197;-68
2023/05/16 06:04:41;;;;;;;10.77;9.73;;;;;;;13.83;80.51;94445.16;5076482;28;20193;-70
2023/05/16 06:07:09;;;;;;;11.57;10.38;;;;;;;13.87;80.61;94449.56;5076625;28;20181;-67
2023/05/16 06:09:37;;;;;;;11.32;10.35;;;;;;;13.90;80.41;94450.75;5076791;28;20221;-67
2023/05/16 06:12:05;;;;;;;11.82;10.23;;;;;;;13.93;79.99;94444.41;5075644;28;20648;-67
2023/05/16 06:14:33;;;;;;;10.88;9.60;;;;;;;13.96;79.86;94438.88;5075341;28;20205;-67
2023/05/16 06:17:02;;;;;;;11.55;9.98;;;;;;;14.00;79.39;94440.88;5076540;28;20643;-66
2023/05/16 06:19:28;;;;;;;11.27;10.18;;;;;;;14.01;79.79;94446.03;5076260;28;20201;-67
2023/05/16 06:21:57;;;;;;;11.05;10.05;;;;;;;14.02;79.57;94446.84;5075876;28;20544;-68
2023/05/16 06:24:28;;;;;;;12.02;10.15;;;;;;;14.05;79.60;94451.59;5076736;28;20185;-67
2023/05/16 06:26:56;;;;;;;11.70;10.50;;;;;;;14.06;79.39;94444.88;5076652;28;20193;-67
2023/05/16 06:29:28;;;;;;;10.93;9.70;;;;;;;14.08;79.72;94446.06;5075681;28;20270;-67
2023/05/16 06:31:56;;;;;;;11.93;10.15;;;;;;;14.09;79.59;94453.22;5076497;28;20186;-67
2023/05/16 06:34:26;;;;;;;10.57;9.57;;;;;;;14.09;79.12;94444.06;5076434;28;20193;-67
2023/05/16 06:36:57;;;;;;;10.85;9.57;;;;;;;14.11;78.83;94439.75;5076056;28;20707;-67
2023/05/16 06:39:26;;;;;;;10.45;9.43;;;;;;;14.12;78.83;94435.78;5076376;28;20200;-67
2023/05/16 06:41:53;;;;;;;10.02;9.02;;;;;;;14.15;78.52;94414.78;5076066;28;20201;-67
2023/05/16 06:44:21;;;;;;;9.30;8.32;;;;;;;14.20;77.79;94419.97;5076368;28;20208;-67
2023/05/16 06:46:50;;;;;;;10.23;9.23;;;;;;;14.26;77.43;94423.16;5075213;28;20201;-67
2023/05/16 06:49:20;;;;;;;10.10;8.82;;;;;;;14.29;77.51;94417.59;5075781;28;20252;-67
2023/05/16 06:51:47;;;;;;;10.82;9.00;;;;;;;14.31;77.17;94406.13;5076010;28;20222;-67
2023/05/16 06:54:15;;;;;;;10.10;9.05;;;;;;;14.34;76.69;94397.00;5075712;28;20251;-67
2023/05/16 06:56:47;;;;;;;10.15;8.30;;;;;;;14.40;76.32;94389.88;5075499;28;20185;-67
2023/05/16 06:59:15;;;;;;;9.57;8.40;;;;;;;14.45;76.29;94381.16;5076038;28;20268;-67
2023/05/16 07:01:43;;;;;;;8.85;7.97;;;;;;;14.51;75.65;94370.50;5075393;28;20193;-67
2023/05/16 07:04:12;;;;;;;8.45;7.13;;;;;;;14.56;75.05;94362.59;5074978;28;20200;-67
2023/05/16 07:06:40;;;;;;;9.50;7.78;;;;;;;14.66;74.64;94378.44;5075816;28;20254;-67
2023/05/16 07:09:08;;;;;;;10.98;8.27;;;;;;;14.67;75.17;94376.50;5075765;28;20209;-68
2023/05/16 07:11:36;;;;;;;8.38;7.57;;;;;;;14.67;75.78;94366.19;5075577;28;20276;-67
2023/05/16 07:14:05;;;;;;;9.98;7.93;;;;;;;14.69;75.45;94369.34;5075736;28;20193;-68
2023/05/16 07:16:34;;;;;;;9.55;7.85;;;;;;;14.76;74.37;94364.97;5074158;28;20237;-68
2023/05/16 07:19:01;;;;;;;9.88;7.55;;;;;;;14.81;73.62;94375.66;5075482;28;20197;-67
2023/05/16 07:21:30;;;;;;;10.18;7.85;;;;;;;14.87;74.32;94360.22;5074358;28;20201;-67
2023/05/16 07:23:58;;;;;;;9.93;7.65;;;;;;;14.91;73.95;94358.22;5075758;28;20197;-67
2023/05/16 07:26:26;;;;;;;9.05;7.72;;;;;;;14.95;73.56;94358.22;5075716;28;20182;-67
2023/05/16 07:28:55;;;;;;;9.88;7.40;;;;;;;14.98;73.35;94368.53;5075175;28;20212;-67
2023/05/16 07:31:24;;;;;;;10.27;7.88;;;;;;;15.00;73.38;94372.50;5075562;28;20243;-67
2023/05/16 07:33:52;;;;;;;10.77;7.30;;;;;;;15.04;72.93;94386.41;5074548;28;20250;-67
2023/05/16 07:36:20;;;;;;;10.73;8.43;;;;;;;15.07;73.63;94405.00;5074421;28;20203;-67
2023/05/16 07:38:47;;;;;;;9.60;8.75;;;;;;;15.08;72.94;94396.28;5075297;28;20181;-67
2023/05/16 07:41:16;;;;;;;9.57;8.57;;;;;;;15.10;72.75;94404.22;5074768;28;20258;-67
2023/05/16 07:43:45;;;;;;;11.45;8.70;;;;;;;15.10;72.61;94407.78;5074761;28;20188;-67
2023/05/16 07:46:13;;;;;;;11.52;8.77;;;;;;;15.10;72.99;94412.56;5075219;28;20200;-67
2023/05/16 07:48:42;;;;;;;9.23;8.38;;;;;;;15.12;73.23;94399.06;5074544;28;20224;-68
2023/05/16 07:51:14;;;;;;;8.75;7.95;;;;;;;15.13;72.86;94398.66;5075590;28;20266;-67
2023/05/16 07:53:42;;;;;;;10.38;9.27;;;;;;;15.14;73.52;94399.44;5075448;28;20201;-67
2023/05/16 07:56:10;;;;;;;9.82;8.73;;;;;;;15.15;74.56;94404.63;5075118;28;20628;-68
2023/05/16 07:58:37;;;;;;;9.57;8.57;;;;;;;15.16;74.27;94397.88;5075319;28;20258;-67
2023/05/16 08:01:04;;;;;;;9.77;8.77;;;;;;;15.19;73.44;94387.16;5074883;28;20189;-68
2023/05/16 08:03:34;;;;;;;9.40;8.57;;;;;;;15.22;74.14;94383.59;5075063;28;20262;-68
2023/05/16 08:06:03;;;;;;;10.43;8.98;;;;;;;15.24;74.21;94381.97;5075644;28;20187;-68
2023/05/16 08:08:33;;;;;;;9.80;8.80;;;;;;;15.26;74.02;94371.28;5076697;28;20185;-68
2023/05/16 08:11:01;;;;;;;9.38;8.35;;;;;;;15.31;73.63;94378.41;5080039;28;20304;-68
2023/05/16 08:13:30;;;;;;;11.27;8.98;;;;;;;15.34;73.41;94367.28;5079747;28;20195;-68
2023/05/16 08:15:59;;;;;;;10.60;8.77;;;;;;;15.37;72.92;94351.81;5078462;28;20228;-68
2023/05/16 08:18:27;;;;;;;9.45;8.40;;;;;;;15.43;71.65;94346.63;5079652;28;20189;-67
2023/05/16 08:20:53;;;;;;;9.73;8.65;;;;;;;15.48;72.16;94349.00;5078906;28;20197;-67
2023/05/16 08:23:23;;;;;;;9.85;8.05;;;;;;;15.53;72.05;94343.00;5079199;28;20192;-67
2023/05/16 08:25:53;;;;;;;10.02;8.38;;;;;;;15.69;71.69;94346.19;5077933;28;20254;-67
2023/05/16 08:28:21;;;;;;;11.55;8.73;;;;;;;15.81;71.78;94339.38;5078614;28;20216;-68
2023/05/16 08:30:50;;;;;;;9.05;8.18;;;;;;;15.88;69.84;94342.91;5078947;28;20217;-68
2023/05/16 08:33:20;;;;;;;9.60;7.57;;;;;;;15.88;69.92;94347.69;5078764;28;20250;-68
2023/05/16 08:35:49;;;;;;;10.18;8.13;;;;;;;15.87;70.71;94323.84;5078765;28;20279;-68
2023/05/16 08:38:16;;;;;;;9.50;7.80;;;;;;;15.87;69.81;94334.97;5077526;28;20232;-68
2023/05/16 08:40:51;;;;;;;11.40;7.90;;;;;;;15.85;69.95;94329.03;5077485;28;20258;-67
2023/05/16 08:43:21;;;;;;;10.55;8.00;;;;;;;15.79;69.50;94333.41;5078644;28;20192;-67
2023/05/16 08:45:48;;;;;;;10.82;7.55;;;;;;;15.80;69.61;94323.91;5078536;28;20181;-67
2023/05/16 08:48:17;;;;;;;9.40;7.63;;;;;;;15.84;69.68;94322.66;5078180;28;20185;-67
2023/05/16 08:50:46;;;;;;;8.68;7.88;;;;;;;15.89;69.77;94330.56;5078012;28;20658;-67
2023/05/16 08:53:17;;;;;;;9.60;7.80;;;;;;;15.97;69.98;94339.66;5078622;28;20189;-67
2023/05/16 08:55:48;;;;;;;12.20;8.40;;;;;;;16.05;69.98;94363.50;5077524;28;20196;-67
2023/05/16 08:58:15;;;;;;;9.27;7.65;;;;;;;16.15;70.69;94370.19;5078073;28;20212;-67
2023/05/16 09:00:46;;;;;;;10.10;8.23;;;;;;;16.26;69.19;94370.91;5077275;28;20201;-67
2023/05/16 09:03:14;;;;;;;11.32;7.82;;;;;;;16.30;68.74;94368.09;5078138;28;20624;-67
2023/05/16 09:05:45;;;;;;;11.65;7.68;;;;;;;16.33;69.56;94368.09;5077133;28;20263;-67
2023/05/16 09:08:14;;;;;;;9.63;7.82;;;;;;;16.39;70.25;94367.66;5077003;28;20290;-66
2023/05/16 09:10:44;;;;;;;8.73;7.82;;;;;;;16.46;68.82;94367.63;5076969;28;20217;-67
2023/05/16 09:13:15;;;;;;;9.10;8.07;;;;;;;16.48;68.18;94368.00;5076984;28;20193;-67
2023/05/16 09:15:44;;;;;;;8.90;8.00;;;;;;;16.49;67.13;94361.25;5076561;28;20233;-67
2023/05/16 09:18:13;;;;;;;8.98;7.97;;;;;;;16.51;67.45;94383.88;5077065;28;20288;-67
2023/05/16 09:20:45;;;;;;;10.15;7.72;;;;;;;16.52;67.20;94375.16;5076175;28;20225;-67
2023/05/16 09:23:16;;;;;;;8.30;7.50;;;;;;;16.53;67.76;94373.16;5077093;28;20201;-67
2023/05/16 09:25:46;;;;;;;10.95;7.82;;;;;;;16.55;66.75;94381.88;5076613;28;20197;-67
2023/05/16 09:28:16;;;;;;;9.60;7.38;;;;;;;16.55;66.87;94379.09;5076469;28;20250;-67
2023/05/16 09:30:47;;;;;;;10.05;7.30;;;;;;;16.56;67.03;94378.69;5076630;28;20213;-67
2023/05/16 09:33:20;;;;;;;8.48;6.75;;;;;;;16.57;66.97;94365.56;5077255;28;20197;-67
2023/05/16 09:35:55;;;;;;;7.78;6.78;;;;;;;16.56;67.13;94364.78;5076869;28;20197;-67
2023/05/16 09:38:25;;;;;;;10.32;7.93;;;;;;;16.57;68.45;94346.88;5076375;28;20200;-67
2023/05/16 09:40:52;;;;;;;8.20;7.40;;;;;;;16.58;67.89;94351.22;5076344;28;20205;-67
2023/05/16 09:43:25;;;;;;;9.55;6.90;;;;;;;16.59;67.71;94352.81;5076796;28;20240;-67
2023/05/16 09:45:54;;;;;;;7.93;6.90;;;;;;;16.60;66.60;94348.03;5076216;28;20197;-67
2023/05/16 09:48:27;;;;;;;8.50;7.60;;;;;;;16.62;68.34;94353.97;5076508;28;20197;-67
2023/05/16 09:51:02;;;;;;;9.80;7.50;;;;;;;16.65;67.83;94355.94;5077248;28;20214;-67
2023/05/16 09:53:35;;;;;;;8.43;7.60;;;;;;;16.65;67.68;94361.53;5076430;28;20296;-67
2023/05/16 09:56:06;;;;;;;8.73;7.82;;;;;;;16.66;68.73;94359.53;5076476;28;20196;-67
2023/05/16 09:58:37;;;;;;;8.63;7.82;;;;;;;16.69;67.97;94365.06;5076151;28;20197;-67
2023/05/16 10:01:15;;;;;;;8.32;7.60;;;;;;;16.70;68.04;94352.72;5076705;28;20189;-67
2023/05/16 10:03:43;;;;;;;9.40;8.20;;;;;;;16.71;67.96;94356.31;5075860;28;20278;-67
2023/05/16 10:06:13;;;;;;;8.50;7.68;;;;;;;16.70;67.71;94354.72;5076136;28;20270;-67
2023/05/16 10:08:43;;;;;;;11.10;8.43;;;;;;;16.69;68.49;94355.94;5075849;28;20200;-67
2023/05/16 10:11:15;;;;;;;9.65;8.18;;;;;;;16.66;68.19;94338.03;5075082;28;20256;-67
2023/05/16 10:13:49;;;;;;;10.30;8.38;;;;;;;16.66;68.69;94351.97;5076290;28;20274;-67
2023/05/16 10:16:18;;;;;;;9.90;8.30;;;;;;;16.65;69.22;94360.72;5076629;28;20567;-67
2023/05/16 10:18:51;;;;;;;9.15;8.20;;;;;;;16.60;69.32;94357.19;5075878;28;20189;-67
2023/05/16 10:21:20;;;;;;;10.43;8.52;;;;;;;16.57;69.42;94363.56;5075637;28;20197;-67
2023/05/16 10:23:50;;;;;;;9.73;8.50;;;;;;;16.56;69.07;94364.78;5075683;28;20193;-67
2023/05/16 10:26:24;;;;;;;9.32;8.27;;;;;;;16.54;68.86;94363.59;5076372;28;20200;-67
2023/05/16 10:28:55;;;;;;;11.60;8.95;;;;;;;16.53;68.88;94354.44;5075640;28;20203;-67
2023/05/16 10:31:27;;;;;;;9.38;8.48;;;;;;;16.53;68.42;94350.88;5075286;28;20236;-67
2023/05/16 10:33:57;;;;;;;10.07;9.05;;;;;;;16.55;68.79;94340.91;5076277;28;20251;-67
2023/05/16 10:36:27;;;;;;;9.30;8.07;;;;;;;16.54;67.90;94341.31;5075249;28;20185;-67
2023/05/16 10:38:58;;;;;;;11.43;8.75;;;;;;;16.57;67.24;94329.38;5075128;28;20208;-67
2023/05/16 10:41:26;;;;;;;8.30;7.55;;;;;;;16.59;67.37;94330.56;5075416;28;20193;-67
2023/05/16 10:44:01;;;;;;;9.00;8.10;;;;;;;16.61;67.68;94305.88;5076336;28;20177;-67
2023/05/16 10:46:29;;;;;;;11.40;8.68;;;;;;;16.62;67.69;94303.88;5075412;28;20211;-67
2023/05/16 10:48:58;;;;;;;11.05;7.78;;;;;;;16.63;68.36;94305.47;5074941;28;20197;-67
2023/05/16 10:51:38;;;;;;;10.25;9.20;;;;;;;16.65;68.63;94313.41;5075130;28;20209;-67
2023/05/16 10:54:11;;;;;;;8.93;8.13;;;;;;;16.65;68.99;94296.69;5076097;28;20204;-67
2023/05/16 10:56:39;;;;;;;8.90;8.10;;;;;;;16.65;69.19;94291.91;5075124;28;20205;-67
2023/05/16 10:59:27;;;;;;;9.52;8.23;;;;;;;16.64;69.41;94295.91;5075359;28;20189;-67
2023/05/16 11:01:58;;;;;;;10.00;8.95;;;;;;;16.64;69.71;94317.41;5074874;28;20225;-67
2023/05/16 11:04:48;;;;;;;10.70;8.65;;;;;;;16.63;69.78;94336.09;5072345;28;20282;-67
2023/05/16 11:07:18;;;;;;;10.15;8.48;;;;;;;16.61;69.28;94347.63;5075522;28;20243;-67
2023/05/16 11:10:05;;;;;;;15.77;9.05;;;;;;;16.61;69.04;94358.75;5075957;28;20247;-67
2023/05/16 11:12:43;;;;;;;11.15;8.98;;;;;;;16.64;69.08;94348.03;5074885;28;20201;-67
2023/05/16 11:15:35;;;;;;;11.07;8.75;;;;;;;16.63;68.99;94360.34;5074192;28;20272;-67
2023/05/16 11:18:09;;;;;;;10.65;9.65;;;;;;;16.66;71.40;94367.88;5074570;28;20196;-67
2023/05/16 11:20:39;;;;;;;11.40;9.27;;;;;;;16.65;68.72;94366.28;5074819;28;20208;-67
2023/05/16 11:23:21;;;;;;;10.80;8.70;;;;;;;16.67;68.49;94370.25;5074315;28;20201;-67
2023/05/16 11:25:53;;;;;;;10.45;8.70;;;;;;;16.68;68.38;94365.50;5074355;28;20527;-67
2023/05/16 11:28:22;;;;;;;11.75;8.98;;;;;;;16.68;68.54;94362.69;5074634;28;20200;-67
2023/05/16 11:30:54;;;;;;;12.10;8.73;;;;;;;16.66;69.28;94354.75;5074075;28;20221;-67
2023/05/16 11:33:24;;;;;;;9.60;8.70;;;;;;;16.65;70.19;94336.47;5075111;28;20230;-67
2023/05/16 11:36:06;;;;;;;9.95;8.98;;;;;;;16.66;71.31;94334.47;5074496;28;20201;-67